Time;durP1;ratioP1;P1;durP2;ratioP2;P2;SDS_P1;SDS_P2;PMS_P1;PMS_P2;Temp;Humidity;BMP_temperature;BMP_pressure;BME280_temperature;BME280_humidity;BME280_pressure;Samples;Min_cycle;Max_cycle;Signal;HPM_P1;HPM_P2
2022/02/07 00:03:48;;;;;;;3.93;2.50;;;4.10;99.90;;;;;;4380208;32;20251;-67
2022/02/07 00:06:15;;;;;;;3.47;2.30;;;4.20;99.90;;;;;;4392198;32;20215;-65
2022/02/07 00:08:42;;;;;;;3.80;2.50;;;4.20;99.90;;;;;;4379295;32;20229;-66
2022/02/07 00:11:11;;;;;;;3.73;2.30;;;4.20;99.90;;;;;;4381005;32;20194;-67
2022/02/07 00:13:38;;;;;;;3.40;2.00;;;4.20;99.90;;;;;;4380754;32;20572;-67
2022/02/07 00:16:05;;;;;;;3.97;2.17;;;4.30;99.90;;;;;;4392249;32;20182;-67
2022/02/07 00:18:33;;;;;;;2.83;2.30;;;4.30;99.90;;;;;;4393473;32;20475;-66
2022/02/07 00:21:00;;;;;;;2.90;2.33;;;4.30;99.90;;;;;;4379886;32;20179;-65
2022/02/07 00:23:27;;;;;;;2.83;2.30;;;4.30;99.90;;;;;;4378510;32;20175;-67
2022/02/07 00:25:54;;;;;;;2.97;2.20;;;4.30;99.90;;;;;;4379502;32;20246;-67
2022/02/07 00:28:21;;;;;;;3.23;2.60;;;4.30;99.90;;;;;;4380716;32;20239;-67
2022/02/07 00:30:49;;;;;;;3.50;2.57;;;4.30;99.90;;;;;;4378957;32;20596;-68
2022/02/07 00:33:16;;;;;;;3.57;2.60;;;4.30;99.90;;;;;;4392419;32;20353;-67
2022/02/07 00:35:43;;;;;;;3.63;2.57;;;4.30;99.90;;;;;;4366200;32;20214;-67
2022/02/07 00:38:16;;;;;;;4.27;2.60;;;4.30;99.90;;;;;;4391275;32;20147;-66
2022/02/07 00:41:00;;;;;;;3.90;2.73;;;4.30;99.90;;;;;;4405764;32;20189;-67
2022/02/07 00:43:37;;;;;;;2.97;2.50;;;4.40;99.90;;;;;;4438605;32;20170;-67
2022/02/07 00:46:08;;;;;;;3.90;2.47;;;4.30;99.90;;;;;;4439785;32;20492;-66
2022/02/07 00:48:36;;;;;;;3.80;2.80;;;4.40;99.90;;;;;;4441043;32;20139;-67
2022/02/07 00:51:04;;;;;;;4.10;2.90;;;4.40;99.90;;;;;;4438034;32;20604;-68
2022/02/07 00:53:31;;;;;;;3.87;2.70;;;4.40;99.90;;;;;;4438160;32;20198;-68
2022/02/07 00:55:58;;;;;;;2.20;2.00;;;4.40;99.90;;;;;;4439467;32;20205;-67
2022/02/07 00:58:25;;;;;;;2.67;2.37;;;4.40;99.90;;;;;;4438803;32;20215;-67
2022/02/07 01:00:52;;;;;;;3.37;2.30;;;4.40;99.90;;;;;;4437512;32;20214;-67
2022/02/07 01:03:21;;;;;;;3.40;2.50;;;4.40;99.90;;;;;;4439603;32;20407;-67
2022/02/07 01:05:50;;;;;;;3.80;2.30;;;4.40;99.90;;;;;;4438086;32;20176;-67
2022/02/07 01:08:21;;;;;;;2.33;2.10;;;4.40;99.90;;;;;;4439004;32;20190;-67
2022/02/07 01:56:34;;;;;;;2.23;1.77;;;4.10;99.90;;;;;;4441862;32;20583;-65
2022/02/07 01:59:01;;;;;;;2.93;1.90;;;4.10;99.90;;;;;;4441907;32;20422;-67
2022/02/07 02:01:29;;;;;;;2.53;1.87;;;4.10;99.90;;;;;;4440138;32;20178;-66
2022/02/07 02:03:55;;;;;;;2.10;1.90;;;4.00;99.90;;;;;;4441855;32;20193;-66
2022/02/07 02:06:23;;;;;;;2.60;2.00;;;4.10;99.90;;;;;;4442408;32;20232;-66
2022/02/07 02:08:51;;;;;;;2.77;2.13;;;4.10;99.90;;;;;;4442127;32;20277;-67
2022/02/07 02:11:18;;;;;;;2.27;2.00;;;4.10;99.90;;;;;;4441343;32;20178;-66
2022/02/07 02:16:20;;;;;;;2.53;2.03;;;4.00;99.90;;;;;;4439868;32;20540;-67
2022/02/07 02:33:03;;;;;;;2.87;2.23;;;4.00;99.90;;;;;;4441480;32;20173;-67
2022/02/07 02:38:22;;;;;;;2.83;2.30;;;3.90;99.90;;;;;;4441008;32;20216;-66
2022/02/07 02:46:24;;;;;;;2.37;2.10;;;3.90;99.90;;;;;;4441203;32;20197;-66
2022/02/07 02:48:51;;;;;;;3.73;2.50;;;3.90;99.90;;;;;;4441065;32;20201;-67
2022/02/07 02:51:19;;;;;;;2.80;2.27;;;3.90;99.90;;;;;;4440970;32;20186;-67
2022/02/07 02:53:46;;;;;;;2.70;2.20;;;3.90;99.90;;;;;;4441049;32;20155;-67
2022/02/07 02:56:13;;;;;;;2.50;2.30;;;3.90;99.90;;;;;;4439171;32;20233;-67
2022/02/07 02:58:39;;;;;;;3.10;2.30;;;3.90;99.90;;;;;;4439397;32;20197;-67
2022/02/07 03:01:06;;;;;;;3.03;2.27;;;3.90;99.90;;;;;;4441124;32;20273;-67
2022/02/07 03:03:33;;;;;;;2.43;2.07;;;3.90;99.90;;;;;;4441339;32;20249;-68
2022/02/07 03:06:00;;;;;;;2.73;2.10;;;3.90;99.90;;;;;;4440984;32;20186;-68
2022/02/07 03:08:27;;;;;;;2.47;2.10;;;3.80;99.90;;;;;;4440029;32;20198;-69
2022/02/07 03:11:03;;;;;;;3.53;2.20;;;3.80;99.90;;;;;;4439396;32;20226;-68
2022/02/07 03:13:54;;;;;;;5.60;2.20;;;3.80;99.90;;;;;;4439377;32;20496;-68
2022/02/07 03:16:38;;;;;;;2.53;1.87;;;3.80;99.90;;;;;;4441948;32;20174;-68
2022/02/07 03:19:07;;;;;;;2.80;2.10;;;3.70;99.90;;;;;;4440697;32;20138;-68
2022/02/07 03:21:34;;;;;;;2.50;2.20;;;3.80;99.90;;;;;;4440594;32;20560;-68
2022/02/07 03:24:02;;;;;;;3.20;2.30;;;3.70;99.90;;;;;;4440970;32;20217;-67
2022/02/07 03:26:38;;;;;;;2.60;2.10;;;3.70;99.90;;;;;;4440469;32;20192;-67
2022/02/07 03:29:06;;;;;;;2.97;2.20;;;3.70;99.90;;;;;;4442162;32;20197;-66
2022/02/07 03:31:33;;;;;;;3.27;2.13;;;3.60;99.90;;;;;;4440729;32;20501;-68
2022/02/07 03:34:00;;;;;;;3.53;2.20;;;3.60;99.90;;;;;;4440713;32;20190;-68
2022/02/07 03:36:30;;;;;;;3.63;2.17;;;3.60;99.90;;;;;;4440442;32;20550;-67
2022/02/07 03:38:58;;;;;;;4.10;2.40;;;3.60;99.90;;;;;;4441882;32;20170;-68
2022/02/07 03:41:25;;;;;;;2.60;2.23;;;3.50;99.90;;;;;;4440283;32;20181;-68
2022/02/07 03:43:52;;;;;;;2.57;2.17;;;3.50;99.90;;;;;;4438879;32;20539;-67
2022/02/07 03:46:19;;;;;;;4.67;2.20;;;3.50;99.90;;;;;;4440612;32;20174;-67
2022/02/07 03:48:46;;;;;;;2.37;2.03;;;3.50;99.90;;;;;;4440496;32;20174;-66
2022/02/07 03:51:13;;;;;;;2.77;1.90;;;3.50;99.90;;;;;;4438473;32;20224;-68
2022/02/07 03:53:39;;;;;;;3.37;2.10;;;3.50;99.90;;;;;;4439926;32;20173;-68
2022/02/07 03:56:07;;;;;;;2.87;1.90;;;3.50;99.90;;;;;;4440404;32;20245;-69
2022/02/07 03:58:34;;;;;;;2.80;1.70;;;3.40;99.90;;;;;;4439699;32;20197;-69
2022/02/07 04:01:01;;;;;;;3.50;1.87;;;3.50;99.90;;;;;;4426089;32;20182;-69
2022/02/07 04:03:31;;;;;;;2.53;1.67;;;3.50;99.90;;;;;;4440114;32;20193;-69
2022/02/07 04:08:36;;;;;;;3.07;1.50;;;3.50;99.90;;;;;;4440250;32;20516;-68
2022/02/07 04:11:13;;;;;;;2.17;1.70;;;3.50;99.90;;;;;;4441327;32;20186;-70
2022/02/07 04:13:48;;;;;;;2.97;1.83;;;3.50;99.90;;;;;;4440089;32;20162;-68
2022/02/07 04:16:15;;;;;;;2.20;1.50;;;3.50;99.90;;;;;;4438428;32;20205;-68
2022/02/07 04:18:58;;;;;;;2.47;1.40;;;3.50;99.90;;;;;;4439927;32;20201;-69
2022/02/07 04:21:25;;;;;;;1.77;1.40;;;3.50;99.90;;;;;;4439213;32;20182;-70
2022/02/07 04:23:52;;;;;;;3.53;1.60;;;3.50;99.90;;;;;;4437942;32;20175;-67
2022/02/07 04:26:19;;;;;;;2.13;1.53;;;3.50;99.90;;;;;;4439637;32;20229;-68
2022/02/07 04:28:45;;;;;;;2.60;1.50;;;3.60;99.90;;;;;;4439901;32;20171;-67
2022/02/07 04:31:12;;;;;;;3.07;1.47;;;3.50;99.90;;;;;;4439533;32;20221;-68
2022/02/07 04:33:39;;;;;;;3.77;1.60;;;3.50;99.90;;;;;;4438241;32;20233;-68
2022/02/07 04:36:07;;;;;;;2.37;1.40;;;3.60;99.90;;;;;;4438135;32;20562;-69
2022/02/07 04:38:34;;;;;;;3.63;1.47;;;3.60;99.90;;;;;;4439621;32;20209;-69
2022/02/07 04:41:01;;;;;;;2.10;1.20;;;3.60;99.90;;;;;;4440022;32;20198;-68
2022/02/07 04:43:28;;;;;;;4.40;1.90;;;3.60;99.90;;;;;;4437942;32;20462;-68
2022/02/07 05:01:14;;;;;;;4.97;1.40;;;3.50;99.90;;;;;;4438003;32;20237;-71
2022/02/07 05:03:47;;;;;;;5.00;1.40;;;3.50;99.90;;;;;;4439161;32;20193;-68
2022/02/07 05:14:32;;;;;;;2.50;1.40;;;3.50;99.90;;;;;;4443814;32;20185;-69
2022/02/07 05:17:00;;;;;;;3.77;1.50;;;3.50;99.90;;;;;;4444006;32;20482;-69
2022/02/07 05:19:27;;;;;;;2.00;1.30;;;3.40;99.90;;;;;;4446344;32;20185;-69
2022/02/07 05:21:54;;;;;;;3.43;1.77;;;3.40;99.90;;;;;;4442592;32;20237;-70
2022/02/07 05:24:21;;;;;;;2.77;1.50;;;3.30;99.90;;;;;;4442542;32;20205;-69
2022/02/07 05:26:47;;;;;;;5.07;1.50;;;3.30;99.90;;;;;;4442634;32;20221;-69
2022/02/07 05:29:14;;;;;;;2.30;1.50;;;3.30;99.90;;;;;;4444364;32;20288;-69
2022/02/07 05:31:41;;;;;;;3.40;1.60;;;3.30;99.90;;;;;;4444907;32;20538;-69
2022/02/07 05:34:08;;;;;;;3.50;1.50;;;3.30;99.90;;;;;;4444506;32;20189;-68
2022/02/07 05:36:42;;;;;;;2.50;1.67;;;3.40;99.90;;;;;;4445135;32;20503;-68
2022/02/07 05:39:16;;;;;;;3.80;1.90;;;3.30;99.90;;;;;;4443736;32;20235;-67
2022/02/07 05:41:44;;;;;;;3.30;1.70;;;3.30;99.90;;;;;;4442646;32;20216;-67
2022/02/07 05:44:13;;;;;;;4.73;1.57;;;3.30;99.90;;;;;;4444478;32;20190;-68
2022/02/07 05:46:40;;;;;;;4.13;1.70;;;3.30;99.90;;;;;;4444390;32;20165;-68
2022/02/07 05:49:07;;;;;;;2.80;1.60;;;3.40;99.90;;;;;;4442709;32;20166;-68
2022/02/07 05:51:34;;;;;;;4.53;1.77;;;3.40;99.90;;;;;;4445022;32;20175;-68
2022/02/07 05:54:01;;;;;;;3.13;1.70;;;3.50;99.90;;;;;;4443750;32;20166;-69
2022/02/07 05:56:27;;;;;;;4.17;1.80;;;3.50;99.90;;;;;;4443387;32;20574;-69
2022/02/07 05:58:54;;;;;;;2.70;1.83;;;3.50;99.90;;;;;;4444207;32;20213;-69
2022/02/07 06:01:21;;;;;;;4.30;1.90;;;3.50;99.90;;;;;;4444010;32;20214;-68
2022/02/07 06:03:48;;;;;;;3.10;2.07;;;3.50;99.90;;;;;;4444827;32;20142;-68
2022/02/07 06:06:15;;;;;;;3.00;1.87;;;3.50;99.90;;;;;;4444851;32;20444;-69
2022/02/07 06:08:41;;;;;;;4.03;2.03;;;3.50;99.90;;;;;;4442332;32;20209;-67
2022/02/07 06:11:08;;;;;;;3.60;2.13;;;3.50;99.90;;;;;;4442570;32;20216;-68
2022/02/07 06:13:37;;;;;;;3.63;2.20;;;3.60;99.90;;;;;;4442037;32;20229;-68
2022/02/07 06:16:05;;;;;;;3.10;2.00;;;3.60;99.90;;;;;;4444252;32;20232;-69
2022/02/07 06:18:32;;;;;;;4.37;2.23;;;3.70;99.90;;;;;;4443359;32;20194;-69
2022/02/07 06:21:05;;;;;;;4.33;2.30;;;3.70;99.90;;;;;;4441513;32;20234;-69
2022/02/07 06:23:33;;;;;;;4.03;2.50;;;3.80;99.90;;;;;;4439625;32;20174;-69
2022/02/07 06:26:00;;;;;;;5.57;2.37;;;3.80;99.90;;;;;;4442160;32;20185;-69
2022/02/07 06:28:26;;;;;;;4.63;2.47;;;3.80;99.90;;;;;;4450268;32;20153;-68
2022/02/07 06:30:53;;;;;;;3.33;2.50;;;3.70;99.90;;;;;;4441860;32;20258;-68
2022/02/07 06:33:20;;;;;;;6.03;2.33;;;3.70;99.90;;;;;;4439269;32;20201;-67
2022/02/07 06:35:47;;;;;;;4.73;2.63;;;3.60;99.90;;;;;;4441838;32;20270;-67
2022/02/07 06:38:14;;;;;;;4.60;2.50;;;3.60;99.90;;;;;;4440637;32;20431;-68
2022/02/07 06:40:41;;;;;;;5.10;2.87;;;3.60;99.90;;;;;;4440918;32;20206;-68
2022/02/07 06:43:07;;;;;;;4.60;3.07;;;3.50;99.90;;;;;;4439620;32;20494;-69
2022/02/07 06:45:34;;;;;;;5.83;2.97;;;3.50;99.90;;;;;;4439233;32;20255;-69
2022/02/07 06:48:01;;;;;;;4.73;2.83;;;3.40;99.90;;;;;;4441528;32;20205;-68
2022/02/07 06:50:28;;;;;;;6.47;2.73;;;3.40;99.90;;;;;;4441874;32;20162;-68
2022/02/07 06:53:00;;;;;;;4.20;2.60;;;3.30;99.90;;;;;;4440775;32;20173;-68
2022/02/07 06:55:27;;;;;;;6.70;2.97;;;3.10;99.90;;;;;;4442390;32;20162;-66
2022/02/07 06:57:53;;;;;;;5.83;3.10;;;3.00;99.90;;;;;;4440949;32;20268;-66
2022/02/07 07:00:21;;;;;;;5.77;3.00;;;2.90;99.90;;;;;;4441175;32;20237;-68
2022/02/07 07:02:48;;;;;;;4.50;3.07;;;2.80;99.90;;;;;;4441031;32;20234;-67
2022/02/07 07:05:21;;;;;;;4.57;3.03;;;2.80;99.90;;;;;;4440363;32;20172;-67
2022/02/07 07:07:48;;;;;;;4.93;2.87;;;2.60;99.90;;;;;;4440594;32;20200;-67
2022/02/07 07:10:17;;;;;;;5.53;3.00;;;2.50;99.90;;;;;;4441770;32;20165;-68
2022/02/07 07:12:47;;;;;;;5.37;3.20;;;2.30;99.90;;;;;;4439037;32;20226;-68
2022/02/07 07:15:18;;;;;;;4.40;3.10;;;2.10;99.90;;;;;;4441444;32;20212;-67
2022/02/07 07:17:45;;;;;;;7.27;3.20;;;2.00;99.90;;;;;;4441010;32;20162;-64
2022/02/07 07:20:12;;;;;;;6.10;3.33;;;1.80;99.90;;;;;;4439309;32;20216;-68
2022/02/07 07:22:40;;;;;;;5.10;3.40;;;1.70;99.90;;;;;;4439112;32;20197;-67
2022/02/07 07:25:13;;;;;;;4.90;3.10;;;1.60;99.90;;;;;;4448947;32;20219;-67
2022/02/07 07:27:55;;;;;;;5.57;3.67;;;1.60;99.90;;;;;;4456227;32;20567;-67
2022/02/07 07:30:28;;;;;;;4.33;3.13;;;1.60;99.90;;;;;;4456430;32;20165;-68
2022/02/07 07:33:00;;;;;;;8.00;4.00;;;1.60;99.90;;;;;;4455901;32;20456;-67
2022/02/07 07:35:28;;;;;;;5.73;4.00;;;1.60;99.90;;;;;;4456134;32;20506;-66
2022/02/07 07:37:55;;;;;;;9.00;4.57;;;1.60;99.90;;;;;;4457558;32;20178;-65
2022/02/07 07:40:21;;;;;;;9.77;5.50;;;1.60;99.90;;;;;;4454351;32;20225;-66
2022/02/07 07:42:53;;;;;;;8.80;5.43;;;1.50;99.90;;;;;;4453531;32;20334;-66
2022/02/07 07:45:25;;;;;;;8.97;5.50;;;1.40;99.90;;;;;;4455400;32;20165;-65
2022/02/07 07:47:58;;;;;;;9.73;5.50;;;1.30;99.90;;;;;;4455024;32;20233;-66
2022/02/07 07:50:48;;;;;;;8.53;5.27;;;1.30;99.90;;;;;;4453731;32;20252;-65
2022/02/07 07:53:30;;;;;;;11.90;6.07;;;1.30;99.90;;;;;;4453533;32;20222;-65
2022/02/07 08:04:17;;;;;;;10.00;6.27;;;1.30;99.90;;;;;;4455850;32;20188;-66
2022/02/07 08:07:00;;;;;;;13.03;6.73;;;1.40;99.90;;;;;;4456632;32;20240;-66
2022/02/07 08:12:04;;;;;;;10.43;6.10;;;1.50;99.90;;;;;;4455187;32;20178;-67
2022/02/07 08:14:35;;;;;;;10.77;6.30;;;1.40;99.90;;;;;;4454095;32;20201;-68
2022/02/07 08:17:23;;;;;;;10.70;6.17;;;1.40;99.90;;;;;;4453678;32;20207;-67
2022/02/07 08:19:51;;;;;;;9.30;6.30;;;1.20;99.90;;;;;;4453763;32;20242;-68
2022/02/07 08:22:19;;;;;;;10.17;6.00;;;1.20;99.90;;;;;;4455041;32;20197;-68
2022/02/07 08:24:46;;;;;;;12.10;6.60;;;1.20;99.90;;;;;;4455800;32;20506;-68
2022/02/07 08:27:13;;;;;;;10.93;6.70;;;1.20;99.90;;;;;;4448445;32;20544;-66
2022/02/07 08:29:40;;;;;;;11.00;6.43;;;1.10;99.90;;;;;;4438366;32;20201;-68
2022/02/07 08:32:08;;;;;;;12.00;6.63;;;1.20;99.90;;;;;;4439448;32;20468;-66
2022/02/07 08:34:35;;;;;;;11.63;6.80;;;1.20;99.90;;;;;;4437797;32;20571;-70
2022/02/07 08:37:02;;;;;;;12.53;7.20;;;1.20;99.90;;;;;;4437721;32;20213;-67
2022/02/07 08:39:29;;;;;;;13.80;7.10;;;1.30;99.90;;;;;;4439897;32;20178;-67
2022/02/07 08:41:56;;;;;;;13.00;6.67;;;1.40;99.90;;;;;;4437836;32;20193;-67
2022/02/07 08:44:26;;;;;;;11.97;6.60;;;1.30;99.90;;;;;;4438007;32;20209;-67
2022/02/07 08:46:54;;;;;;;14.37;7.30;;;1.30;99.90;;;;;;4437883;32;20178;-66
2022/02/07 08:49:21;;;;;;;12.30;7.50;;;1.30;99.90;;;;;;4438257;32;20213;-66
2022/02/07 08:51:50;;;;;;;12.23;7.40;;;1.30;99.90;;;;;;4439243;32;20424;-66
2022/02/07 08:54:22;;;;;;;12.97;7.13;;;1.30;99.90;;;;;;4438986;32;20420;-65
2022/02/07 08:56:58;;;;;;;13.73;7.43;;;1.20;99.90;;;;;;4439228;32;20469;-67
2022/02/07 08:59:34;;;;;;;12.90;7.80;;;1.20;99.90;;;;;;4439710;32;20166;-66
2022/02/07 09:02:13;;;;;;;12.63;7.20;;;1.20;99.90;;;;;;4437483;32;20209;-68
2022/02/07 09:04:47;;;;;;;15.53;7.43;;;1.20;99.90;;;;;;4437520;32;20228;-67
2022/02/07 09:07:36;;;;;;;13.97;8.07;;;1.20;99.90;;;;;;4439600;32;20456;-66
2022/02/07 09:10:04;;;;;;;14.50;8.43;;;1.20;99.90;;;;;;4437493;32;20170;-67
2022/02/07 09:12:32;;;;;;;14.67;9.27;;;1.20;99.90;;;;;;4439120;32;20176;-67
2022/02/07 09:15:06;;;;;;;16.33;10.17;;;1.30;99.90;;;;;;4437481;32;20186;-65
2022/02/07 09:17:33;;;;;;;14.60;9.07;;;1.30;99.90;;;;;;4439688;32;20192;-66
2022/02/07 09:20:00;;;;;;;15.03;9.27;;;1.30;99.90;;;;;;4440395;32;20161;-67
2022/02/07 09:22:27;;;;;;;17.00;10.13;;;1.30;99.90;;;;;;4437715;32;20174;-67
2022/02/07 09:24:53;;;;;;;15.93;9.70;;;1.30;99.90;;;;;;4439184;32;20201;-68
2022/02/07 09:27:20;;;;;;;17.73;9.87;;;1.20;99.90;;;;;;4437647;32;20178;-66
2022/02/07 09:29:47;;;;;;;16.53;9.57;;;1.30;99.90;;;;;;4440325;32;20185;-66
2022/02/07 09:32:15;;;;;;;19.23;9.23;;;1.40;99.90;;;;;;4442294;32;20197;-65
2022/02/07 09:34:42;;;;;;;15.20;9.10;;;1.40;99.90;;;;;;4440956;32;20197;-67
2022/02/07 09:37:08;;;;;;;15.50;8.57;;;1.40;99.90;;;;;;4442380;32;20215;-66
2022/02/07 09:39:35;;;;;;;15.97;8.20;;;1.50;99.90;;;;;;4454974;32;20526;-66
2022/02/07 09:42:04;;;;;;;14.13;8.33;;;1.50;99.90;;;;;;4441362;32;20220;-65
2022/02/07 09:44:41;;;;;;;13.83;8.50;;;1.40;99.90;;;;;;4439726;32;20216;-66
2022/02/07 09:47:09;;;;;;;16.17;8.97;;;1.50;99.90;;;;;;4454557;32;20201;-66
2022/02/07 09:49:36;;;;;;;17.10;9.63;;;1.40;99.90;;;;;;4440353;32;20214;-66
2022/02/07 09:52:04;;;;;;;17.53;9.03;;;1.50;99.90;;;;;;4454790;32;20155;-65
2022/02/07 09:54:33;;;;;;;15.97;9.27;;;1.50;99.90;;;;;;4455948;32;20174;-65
2022/02/07 09:57:00;;;;;;;16.87;9.70;;;1.50;99.90;;;;;;4442488;32;20173;-67
2022/02/07 09:59:29;;;;;;;16.67;8.93;;;1.50;99.90;;;;;;4442822;32;20173;-66
2022/02/07 10:02:01;;;;;;;16.77;9.67;;;1.50;99.90;;;;;;4456835;32;20181;-65
2022/02/07 10:04:36;;;;;;;16.07;9.30;;;1.50;99.90;;;;;;4457897;32;20142;-65
2022/02/07 10:07:24;;;;;;;18.30;9.73;;;1.50;99.90;;;;;;4444123;32;20429;-65
2022/02/07 10:15:40;;;;;;;15.77;9.07;;;1.40;99.90;;;;;;4442280;32;20205;-66
2022/02/07 10:20:53;;;;;;;18.00;10.07;;;1.50;99.90;;;;;;4443548;32;20204;-66
2022/02/07 10:43:17;;;;;;;11.17;7.03;;;1.90;99.90;;;;;;4442260;32;20178;-67
2022/02/07 10:48:33;;;;;;;10.50;6.30;;;1.90;99.90;;;;;;4457092;32;20161;-72
2022/02/07 10:51:06;;;;;;;11.53;6.80;;;1.70;99.90;;;;;;4458253;32;20164;-67
2022/02/07 10:53:36;;;;;;;12.57;7.23;;;1.70;99.90;;;;;;4441619;32;20190;-67
2022/02/07 10:56:03;;;;;;;10.07;6.73;;;1.70;99.90;;;;;;4457011;32;20401;-67
2022/02/07 10:58:31;;;;;;;11.77;7.00;;;1.60;99.90;;;;;;4442288;32;20629;-66
2022/02/07 11:01:08;;;;;;;10.37;6.77;;;1.60;99.90;;;;;;4456808;32;20196;-66
2022/02/07 11:03:59;;;;;;;10.67;6.60;;;1.40;99.90;;;;;;4456747;32;20557;-67
2022/02/07 11:06:33;;;;;;;9.87;6.60;;;1.30;99.90;;;;;;4443111;32;20193;-66
2022/02/07 11:20:10;;;;;;;10.30;5.67;;;1.10;99.90;;;;;;4454272;32;20174;-68
2022/02/07 11:28:25;;;;;;;6.50;4.50;;;1.00;99.90;;;;;;4422614;32;20187;-66
2022/02/07 11:31:08;;;;;;;9.47;4.80;;;0.90;99.90;;;;;;4422244;32;20174;-66
2022/02/07 11:33:54;;;;;;;7.23;4.60;;;0.80;99.90;;;;;;4424580;32;20231;-65
2022/02/07 11:36:31;;;;;;;7.57;4.67;;;0.70;99.90;;;;;;4423829;32;20180;-65
2022/02/07 11:39:11;;;;;;;7.50;4.70;;;0.70;99.90;;;;;;4424258;32;20162;-66
2022/02/07 11:42:00;;;;;;;8.30;4.90;;;0.70;99.90;;;;;;4422639;32;20196;-66
2022/02/07 11:44:51;;;;;;;9.50;5.43;;;0.70;99.90;;;;;;4422434;32;20298;-73
2022/02/07 11:47:28;;;;;;;10.60;5.33;;;0.60;99.90;;;;;;4364600;32;20234;-67
2022/02/07 11:50:02;;;;;;;10.00;5.70;;;0.60;99.90;;;;;;4366195;32;20185;-66
2022/02/07 11:52:41;;;;;;;11.87;6.03;;;0.70;99.90;;;;;;4352148;32;20265;-66
2022/02/07 11:55:11;;;;;;;11.63;6.07;;;0.70;99.90;;;;;;4377087;32;20177;-67
2022/02/07 11:57:43;;;;;;;11.80;6.93;;;0.70;99.90;;;;;;4364278;32;20180;-67
2022/02/07 12:00:13;;;;;;;12.17;7.23;;;0.70;99.90;;;;;;4364748;32;20198;-67
2022/02/07 12:02:48;;;;;;;11.83;6.67;;;0.80;99.90;;;;;;4382564;32;20182;-67
2022/02/07 12:05:23;;;;;;;16.47;8.07;;;0.80;99.90;;;;;;4402602;32;20235;-67
2022/02/07 12:08:03;;;;;;;15.03;8.00;;;0.90;99.90;;;;;;4394911;32;20574;-67
2022/02/07 12:13:04;;;;;;;14.87;8.40;;;1.00;99.90;;;;;;4394099;32;20197;-66
2022/02/07 12:15:44;;;;;;;15.87;8.60;;;1.00;99.90;;;;;;4394592;32;20231;-67
2022/02/07 12:18:14;;;;;;;16.10;8.53;;;1.10;99.90;;;;;;4400278;32;20308;-67
2022/02/07 12:20:43;;;;;;;15.30;7.97;;;1.10;99.90;;;;;;4395757;32;20237;-67
2022/02/07 12:23:17;;;;;;;18.57;8.77;;;1.20;99.90;;;;;;4420415;32;20178;-66
2022/02/07 12:25:54;;;;;;;16.17;8.53;;;1.20;99.90;;;;;;4451934;32;20165;-66
2022/02/07 12:33:37;;;;;;;15.10;8.67;;;1.40;99.90;;;;;;4455135;32;20140;-66
2022/02/07 12:36:06;;;;;;;17.63;8.80;;;1.40;99.90;;;;;;4455349;32;20246;-66
2022/02/07 12:38:37;;;;;;;18.57;9.13;;;1.50;99.90;;;;;;4453897;32;20182;-66
2022/02/07 12:41:07;;;;;;;17.00;8.80;;;1.50;99.90;;;;;;4453729;32;20185;-66
2022/02/07 12:43:36;;;;;;;14.27;8.37;;;1.60;99.90;;;;;;4454866;32;20151;-66
2022/02/07 12:46:06;;;;;;;17.40;8.73;;;1.60;99.90;;;;;;4453992;32;20200;-67
2022/02/07 12:48:36;;;;;;;15.03;7.93;;;1.60;99.90;;;;;;4454070;32;20223;-66
2022/02/07 12:51:03;;;;;;;16.30;8.00;;;1.70;99.90;;;;;;4450640;32;20189;-67
2022/02/07 12:53:31;;;;;;;11.87;7.50;;;1.80;99.90;;;;;;4439903;32;20235;-67
2022/02/07 12:56:00;;;;;;;13.77;8.03;;;1.80;99.90;;;;;;4440589;32;20177;-68
2022/02/07 12:58:42;;;;;;;14.73;7.87;;;1.70;99.90;;;;;;4454850;32;20211;-68
2022/02/07 13:01:24;;;;;;;14.23;7.63;;;1.80;99.90;;;;;;4440547;32;20203;-67
2022/02/07 13:03:58;;;;;;;14.50;7.70;;;1.80;99.90;;;;;;4440341;32;20268;-68
2022/02/07 13:06:36;;;;;;;15.73;8.23;;;1.80;99.90;;;;;;4441945;32;20188;-67
2022/02/07 13:09:40;;;;;;;15.33;8.00;;;1.90;99.90;;;;;;4440387;32;20192;-68
2022/02/07 13:14:41;;;;;;;15.00;8.07;;;2.00;99.90;;;;;;4442059;32;20170;-67
2022/02/07 13:17:09;;;;;;;12.20;6.87;;;2.10;99.90;;;;;;4440991;32;20182;-68
2022/02/07 13:19:43;;;;;;;12.50;6.97;;;2.10;99.90;;;;;;4455110;32;20530;-67
2022/02/07 13:22:11;;;;;;;11.97;7.23;;;2.10;99.90;;;;;;4455386;32;20464;-68
2022/02/07 13:24:39;;;;;;;11.80;6.83;;;2.20;99.90;;;;;;4440273;32;20170;-67
2022/02/07 13:27:12;;;;;;;13.17;6.87;;;2.30;99.90;;;;;;4441757;32;20260;-67
2022/02/07 13:29:45;;;;;;;15.13;7.23;;;2.30;99.90;;;;;;4441978;32;20174;-67
2022/02/07 13:32:19;;;;;;;12.93;7.20;;;2.50;99.90;;;;;;4444918;32;20182;-68
2022/02/07 13:34:50;;;;;;;12.47;6.03;;;3.00;99.90;;;;;;4444975;32;20233;-67
2022/02/07 13:37:24;;;;;;;10.43;5.27;;;3.20;99.90;;;;;;4457473;32;20235;-68
2022/02/07 13:40:08;;;;;;;9.70;5.27;;;3.30;99.90;;;;;;4456202;32;20177;-68
2022/02/07 13:42:49;;;;;;;10.03;5.33;;;3.40;99.90;;;;;;4456548;32;20178;-67
2022/02/07 13:45:28;;;;;;;12.73;5.53;;;3.60;99.90;;;;;;4456042;32;20207;-67
2022/02/07 13:47:58;;;;;;;12.37;5.63;;;3.60;99.90;;;;;;4456724;32;20193;-67
2022/02/07 13:50:33;;;;;;;11.67;5.27;;;3.40;99.90;;;;;;4457583;32;20200;-67
2022/02/07 13:53:03;;;;;;;9.87;5.50;;;3.30;99.90;;;;;;4456014;32;20239;-67
2022/02/07 13:55:39;;;;;;;10.87;5.67;;;3.20;99.90;;;;;;4455829;32;20170;-68
2022/02/07 13:58:08;;;;;;;8.43;5.10;;;3.10;99.90;;;;;;4458623;32;20168;-67
2022/02/07 14:00:39;;;;;;;11.37;5.27;;;3.10;99.90;;;;;;4455499;32;20183;-67
2022/02/07 14:03:28;;;;;;;10.47;5.13;;;2.90;99.90;;;;;;4455787;32;20278;-68
2022/02/07 14:06:15;;;;;;;11.03;5.30;;;2.80;99.90;;;;;;4448694;32;20544;-69
2022/02/07 14:08:56;;;;;;;11.40;5.13;;;2.70;99.90;;;;;;4443782;32;20174;-70
2022/02/07 14:11:31;;;;;;;11.73;4.50;;;2.60;99.90;;;;;;4440160;32;20178;-68
2022/02/07 14:14:05;;;;;;;10.27;5.17;;;2.50;99.90;;;;;;4440242;32;20178;-68
2022/02/07 14:16:33;;;;;;;10.60;5.00;;;2.50;99.90;;;;;;4439794;32;20197;-68
2022/02/07 14:19:00;;;;;;;12.07;5.90;;;2.50;99.90;;;;;;4440521;32;20197;-68
2022/02/07 14:21:31;;;;;;;12.93;5.63;;;2.50;99.90;;;;;;4442555;32;20364;-68
2022/02/07 14:24:01;;;;;;;12.27;5.50;;;2.60;99.90;;;;;;4440350;32;20182;-70
2022/02/07 14:26:48;;;;;;;10.70;4.73;;;2.60;99.90;;;;;;4440399;32;20247;-68
2022/02/07 14:29:15;;;;;;;9.30;5.00;;;2.50;99.90;;;;;;4440018;32;20193;-68
2022/02/07 14:31:42;;;;;;;10.90;5.00;;;2.50;99.90;;;;;;4439966;32;20194;-68
2022/02/07 14:34:09;;;;;;;9.50;5.10;;;2.50;99.90;;;;;;4441002;32;20178;-68
2022/02/07 14:36:36;;;;;;;11.37;4.80;;;2.50;99.90;;;;;;4440137;32;20178;-68
2022/02/07 14:39:06;;;;;;;12.30;4.53;;;2.50;99.90;;;;;;4440458;32;20235;-69
2022/02/07 14:41:33;;;;;;;10.87;4.73;;;2.50;99.90;;;;;;4441012;32;20229;-68
2022/02/07 14:44:02;;;;;;;9.70;5.00;;;2.50;99.90;;;;;;4440691;32;20254;-69
2022/02/07 14:46:36;;;;;;;10.40;4.87;;;2.50;99.90;;;;;;4441069;32;20173;-69
2022/02/07 14:49:07;;;;;;;7.90;4.53;;;2.50;99.90;;;;;;4439316;32;20232;-69
2022/02/07 14:51:34;;;;;;;7.67;4.57;;;2.50;99.90;;;;;;4439217;32;20222;-69
2022/02/07 14:54:01;;;;;;;10.27;4.73;;;2.60;99.90;;;;;;4438990;32;20167;-69
2022/02/07 14:56:28;;;;;;;8.67;4.33;;;2.60;99.90;;;;;;4440067;32;20235;-69
2022/02/07 14:58:55;;;;;;;9.00;4.67;;;2.60;99.90;;;;;;4438991;32;20170;-70
2022/02/07 15:01:22;;;;;;;8.07;4.20;;;2.60;99.90;;;;;;4453108;32;20178;-68
2022/02/07 15:03:49;;;;;;;8.33;4.50;;;2.60;99.90;;;;;;4440172;32;20220;-67
2022/02/07 15:06:17;;;;;;;13.57;4.53;;;2.60;99.90;;;;;;4448475;32;20205;-68
2022/02/07 15:08:45;;;;;;;9.23;4.70;;;2.60;99.90;;;;;;4455410;32;20230;-68
2022/02/07 15:11:16;;;;;;;10.93;4.47;;;2.60;99.90;;;;;;4455886;32;20177;-68
2022/02/07 15:13:43;;;;;;;8.23;4.10;;;2.60;99.90;;;;;;4455521;32;20182;-68
2022/02/07 15:16:10;;;;;;;10.13;4.07;;;2.60;99.90;;;;;;4439611;32;20182;-68
2022/02/07 15:18:42;;;;;;;8.00;4.30;;;2.60;99.90;;;;;;4440416;32;20186;-68
2022/02/07 15:21:09;;;;;;;8.70;4.10;;;2.60;99.90;;;;;;4440713;32;20228;-68
2022/02/07 15:23:38;;;;;;;8.97;3.83;;;2.60;99.90;;;;;;4438779;32;20182;-68
2022/02/07 15:26:05;;;;;;;8.40;4.33;;;2.60;99.90;;;;;;4439123;32;20549;-68
2022/02/07 15:28:33;;;;;;;7.83;3.70;;;2.60;99.90;;;;;;4439467;32;20174;-67
2022/02/07 15:31:00;;;;;;;13.03;4.63;;;2.60;99.90;;;;;;4442636;32;20234;-68
2022/02/07 15:33:34;;;;;;;8.50;4.53;;;2.60;99.90;;;;;;4454439;32;20201;-69
2022/02/07 15:36:02;;;;;;;10.67;4.00;;;2.50;99.90;;;;;;4454662;32;20178;-68
2022/02/07 15:38:29;;;;;;;8.83;4.33;;;2.50;99.90;;;;;;4455377;32;20197;-68
2022/02/07 15:40:57;;;;;;;11.20;4.57;;;2.40;99.90;;;;;;4454383;32;20259;-69
2022/02/07 15:43:24;;;;;;;9.00;4.07;;;2.40;99.90;;;;;;4455881;32;20234;-68
2022/02/07 15:45:51;;;;;;;7.77;4.10;;;2.30;99.90;;;;;;4454315;32;20178;-68
2022/02/07 15:48:23;;;;;;;7.77;4.13;;;2.30;99.90;;;;;;4453923;32;20226;-68
2022/02/07 15:50:51;;;;;;;9.07;3.90;;;2.40;99.90;;;;;;4453926;32;20231;-67
2022/02/07 15:53:19;;;;;;;8.97;4.07;;;2.40;99.90;;;;;;4454654;32;20178;-67
2022/02/07 15:55:46;;;;;;;9.27;4.00;;;2.30;99.90;;;;;;4455276;32;20146;-68
2022/02/07 15:58:13;;;;;;;10.83;4.83;;;2.40;99.90;;;;;;4453891;32;20242;-68